This is the latest recevied weather packets stored in our database for station/object KC2TER. If no packets are shown the sender has not sent any weather packets the latest 1 day(s).
| Time | Temp. | Humidity | Pressure | Rain* | Wind** | Luminosity | Snow |
|---|---|---|---|---|---|---|---|
| 1777992209 | 23.89° C | 50% | 1011.6 hPa | 0 mm | 3.13 m/s, 142° | 611 W/m² | - |
| 1777991905 | 23.89° C | 52% | 1011.9 hPa | 0 mm | 0.89 m/s, 97° | 452 W/m² | - |
| 1777991603 | 23.89° C | 52% | 1011.6 hPa | 0 mm | 1.34 m/s, 96° | 104 W/m² | - |
| 1777991300 | 23.89° C | 53% | 1011.8 hPa | 0 mm | 2.24 m/s, 124° | 247 W/m² | - |
| 1777990998 | 23.33° C | 54% | 1011.7 hPa | 0 mm | 0.45 m/s, 95° | 259 W/m² | - |
| 1777990695 | 23.33° C | 54% | 1011.6 hPa | 0 mm | 1.34 m/s, 112° | 275 W/m² | - |
| 1777990392 | 22.78° C | 54% | 1011.7 hPa | 0 mm | 0.89 m/s, 99° | 219 W/m² | - |
| 1777990088 | 22.78° C | 56% | 1011.6 hPa | 0 mm | 0.45 m/s, 83° | 239 W/m² | - |
| 1777989785 | 22.78° C | 55% | 1011.6 hPa | 0 mm | 2.24 m/s, 141° | 373 W/m² | - |
| 1777989481 | 22.78° C | 56% | 1011.5 hPa | 0 mm | 1.34 m/s, 65° | 458 W/m² | - |
| 1777989178 | 22.22° C | 57% | 1011.6 hPa | 0 mm | 1.34 m/s, 125° | 484 W/m² | - |
| 1777988874 | 21.67° C | 58% | 1011.4 hPa | 0 mm | 2.24 m/s, 95° | 150 W/m² | - |
| 1777988571 | 21.67° C | 59% | 1011.7 hPa | 0 mm | 1.34 m/s, 146° | 112 W/m² | - |
| 1777988268 | 21.11° C | 59% | 1011.9 hPa | 0 mm | 0.89 m/s, 84° | 221 W/m² | - |
| 1777987964 | 21.11° C | 59% | 1011.6 hPa | 0 mm | 2.24 m/s, 142° | 92 W/m² | - |
| 1777987660 | 21.11° C | 60% | 1011.7 hPa | 0 mm | 0.45 m/s, 98° | 107 W/m² | - |
| 1777987358 | 21.11° C | 61% | 1011.7 hPa | 0 mm | 1.34 m/s, 80° | 153 W/m² | - |
| 1777987055 | 20.56° C | 62% | 1011.7 hPa | 0 mm | 1.79 m/s, 124° | 76 W/m² | - |
| 1777986752 | 20.56° C | 61% | 1011.6 hPa | 0 mm | 1.34 m/s, 104° | 79 W/m² | - |
| 1777986450 | 20.56° C | 62% | 1011.7 hPa | 0 mm | 1.34 m/s, 95° | 81 W/m² | - |
| 1777986148 | 20° C | 63% | 1011.6 hPa | 0 mm | 0.89 m/s, 103° | 180 W/m² | - |
| 1777985845 | 20° C | 63% | 1011.6 hPa | 0 mm | 3.13 m/s, 126° | 71 W/m² | - |
| 1777985542 | 20° C | 64% | 1011.6 hPa | 0 mm | 0.89 m/s, 94° | 68 W/m² | - |
| 1777985239 | 20° C | 65% | 1011.6 hPa | 0 mm | 0.89 m/s, 89° | 69 W/m² | - |
| 1777984935 | 19.44° C | 66% | 1011.7 hPa | 0 mm | 1.79 m/s, 101° | 70 W/m² | - |
* Rain latest hour (hover to see other rain measurements)
** Current wind speed in m/s (hover to see current wind gust speed)